createdAt,value
2017-10-04T00:00:42.865Z,53.20
2017-10-04T00:01:42.815Z,52.80
2017-10-04T00:02:42.878Z,52.60
2017-10-04T00:03:42.767Z,52.10
2017-10-04T00:04:42.784Z,52.20
2017-10-04T00:05:42.743Z,52.60
2017-10-04T00:06:42.801Z,53.50
2017-10-04T00:07:42.704Z,51.90
2017-10-04T00:08:42.821Z,52.30
2017-10-04T00:09:42.666Z,53.50
2017-10-04T00:10:42.732Z,52.80
2017-10-04T00:11:42.636Z,53.20
2017-10-04T00:12:42.739Z,53.90
2017-10-04T00:13:42.600Z,52.90
2017-10-04T00:14:42.648Z,53.80
2017-10-04T00:15:42.659Z,53.00
2017-10-04T00:16:42.668Z,53.20
2017-10-04T00:17:42.519Z,52.60
2017-10-04T00:18:42.586Z,52.50
2017-10-04T00:19:42.494Z,53.60
2017-10-04T00:20:42.603Z,53.20
2017-10-04T00:21:42.464Z,52.30
2017-10-04T00:22:42.509Z,52.80
2017-10-04T00:23:42.423Z,52.80
2017-10-04T00:24:42.519Z,53.00
2017-10-04T00:25:42.399Z,53.50
2017-10-04T00:26:42.429Z,53.90
2017-10-04T00:27:42.359Z,53.40
2017-10-04T00:28:42.443Z,53.10
2017-10-04T00:29:42.323Z,54.50
2017-10-04T00:30:42.356Z,53.10
2017-10-04T00:31:42.297Z,53.50
2017-10-04T00:32:42.383Z,53.10
2017-10-04T00:33:42.261Z,52.50
2017-10-04T00:34:42.257Z,52.40
2017-10-04T00:35:42.307Z,52.70
2017-10-04T00:36:42.203Z,52.80
2017-10-04T00:37:42.305Z,53.20
2017-10-04T00:38:42.172Z,51.90
2017-10-04T00:39:42.252Z,52.70
2017-10-04T00:40:42.150Z,52.60
2017-10-04T00:41:42.239Z,54.00
2017-10-04T00:42:42.112Z,52.40
2017-10-04T00:43:42.149Z,52.90
2017-10-04T00:44:42.076Z,53.50
2017-10-04T00:45:42.157Z,53.30
2017-10-04T00:46:42.036Z,52.40
2017-10-04T00:47:42.078Z,53.70
2017-10-04T00:48:41.999Z,53.60
2017-10-04T00:49:42.096Z,53.10
2017-10-04T00:50:41.975Z,53.10
2017-10-04T00:51:42.007Z,52.50
2017-10-04T00:52:41.940Z,53.70
2017-10-04T00:53:42.018Z,54.70
2017-10-04T00:54:41.893Z,54.00
2017-10-04T00:55:41.930Z,52.10
2017-10-04T00:56:41.868Z,53.60
2017-10-04T00:57:41.942Z,53.40
2017-10-04T00:58:41.835Z,53.40
2017-10-04T00:59:41.860Z,53.30
2017-10-04T01:00:41.804Z,54.00
2017-10-04T01:01:41.878Z,53.00
2017-10-04T01:02:41.767Z,53.30
2017-10-04T01:03:41.782Z,53.90
2017-10-04T01:04:41.738Z,53.60
2017-10-04T01:05:41.790Z,52.90
2017-10-04T01:06:41.690Z,53.80
2017-10-04T01:07:41.701Z,53.20
2017-10-04T01:08:41.656Z,53.10
2017-10-04T01:09:41.721Z,53.20
2017-10-04T01:10:41.624Z,54.00
2017-10-04T01:11:41.747Z,52.00
2017-10-04T01:12:41.587Z,52.40
2017-10-04T01:13:41.645Z,53.40
2017-10-04T01:14:41.556Z,54.20
2017-10-04T01:15:41.666Z,52.50
2017-10-04T01:16:41.515Z,52.60
2017-10-04T01:17:41.579Z,53.40
2017-10-04T01:18:41.483Z,52.30
2017-10-04T01:19:41.965Z,52.70
2017-10-04T01:20:41.857Z,52.70
2017-10-04T01:21:41.503Z,53.60
2017-10-04T01:22:41.784Z,52.20
2017-10-04T01:23:41.514Z,53.60
2017-10-04T01:24:41.393Z,53.70
2017-10-04T01:25:41.426Z,52.20
2017-10-04T01:26:41.352Z,52.70
2017-10-04T01:27:41.442Z,53.20
2017-10-04T01:28:41.313Z,53.20
2017-10-04T01:29:41.363Z,51.90
2017-10-04T01:30:41.277Z,52.50
2017-10-04T01:31:41.368Z,52.60
2017-10-04T01:32:41.241Z,53.40
2017-10-04T01:33:41.286Z,52.70
2017-10-04T01:34:41.211Z,52.00
2017-10-04T01:35:41.200Z,53.90
2017-10-04T01:36:41.308Z,53.50
2017-10-04T01:37:41.172Z,52.90
2017-10-04T01:38:41.213Z,52.60
2017-10-04T01:39:41.124Z,52.90
2017-10-04T01:40:41.225Z,53.90
2017-10-04T01:41:41.100Z,52.90
2017-10-04T01:42:41.138Z,52.20
2017-10-04T01:43:41.054Z,52.30
2017-10-04T01:44:41.153Z,52.80
2017-10-04T01:45:41.018Z,53.30
2017-10-04T01:46:41.176Z,53.50
2017-10-04T01:47:41.002Z,52.10
2017-10-04T01:48:41.097Z,53.50
2017-10-04T01:49:40.946Z,52.10
2017-10-04T01:50:40.993Z,53.10
2017-10-04T01:51:40.928Z,51.70
2017-10-04T01:52:41.004Z,52.30
2017-10-04T01:53:40.891Z,52.20
2017-10-04T01:54:40.929Z,52.30
2017-10-04T01:55:40.859Z,52.30
2017-10-04T01:56:40.938Z,52.80
2017-10-04T01:57:40.835Z,53.40
2017-10-04T01:58:40.840Z,53.00
2017-10-04T01:59:40.786Z,51.70
2017-10-04T02:00:40.863Z,52.70
2017-10-04T02:01:40.748Z,53.50
2017-10-04T02:02:40.775Z,53.60
2017-10-04T02:03:40.735Z,53.30
2017-10-04T02:04:40.796Z,52.40
2017-10-04T02:05:40.682Z,51.80
2017-10-04T02:06:40.692Z,53.00
2017-10-04T02:07:40.634Z,52.50
2017-10-04T02:08:40.710Z,54.20
2017-10-04T02:09:40.611Z,52.80
2017-10-04T02:10:40.621Z,52.10
2017-10-04T02:11:40.589Z,52.00
2017-10-04T02:12:40.644Z,51.90
2017-10-04T02:13:40.554Z,52.30
2017-10-04T02:14:40.562Z,52.10
2017-10-04T02:15:40.520Z,52.10
2017-10-04T02:16:40.565Z,53.30
2017-10-04T02:17:40.473Z,52.10
2017-10-04T02:18:40.585Z,51.70
2017-10-04T02:19:40.439Z,53.00
2017-10-04T02:20:40.497Z,51.50
2017-10-04T02:21:40.416Z,52.60
2017-10-04T02:22:40.512Z,52.30
2017-10-04T02:23:40.366Z,52.90
2017-10-04T02:24:40.431Z,51.80
2017-10-04T02:25:40.350Z,53.20
2017-10-04T02:26:40.437Z,52.00
2017-10-04T02:27:40.304Z,53.90
2017-10-04T02:28:40.344Z,52.60
2017-10-04T02:29:40.263Z,52.50
2017-10-04T02:30:40.357Z,52.50
2017-10-04T02:31:40.240Z,53.40
2017-10-04T02:32:40.271Z,52.40
2017-10-04T02:33:40.199Z,52.10
2017-10-04T02:34:40.304Z,51.90
2017-10-04T02:35:40.158Z,52.80
2017-10-04T02:36:40.177Z,53.30
2017-10-04T02:37:40.206Z,53.20
2017-10-04T02:38:40.114Z,52.80
2017-10-04T02:39:40.122Z,53.00
2017-10-04T02:40:40.077Z,53.30
2017-10-04T02:41:40.133Z,53.00
2017-10-04T02:42:40.039Z,53.30
2017-10-04T02:43:40.052Z,53.80
2017-10-04T02:44:40.002Z,53.20
2017-10-04T02:45:40.063Z,52.70
2017-10-04T02:46:39.958Z,53.50
2017-10-04T02:47:40.076Z,52.80
2017-10-04T02:48:39.931Z,53.00
2017-10-04T02:49:39.988Z,53.10
2017-10-04T02:50:39.902Z,52.50
2017-10-04T02:51:40.010Z,54.20
2017-10-04T02:52:39.950Z,52.70
2017-10-04T02:53:39.908Z,53.50
2017-10-04T02:54:39.827Z,52.20
2017-10-04T02:55:39.925Z,55.00
2017-10-04T02:56:39.790Z,52.80
2017-10-04T02:57:39.862Z,53.80
2017-10-04T02:58:39.755Z,53.80
2017-10-04T02:59:39.847Z,53.30
2017-10-04T03:00:39.716Z,52.80
2017-10-04T03:01:39.781Z,52.50
2017-10-04T03:02:39.681Z,53.70
2017-10-04T03:03:39.780Z,53.20
2017-10-04T03:04:39.659Z,52.80
2017-10-04T03:05:39.693Z,52.60
2017-10-04T03:06:39.613Z,53.20
2017-10-04T03:07:39.706Z,53.00
2017-10-04T03:08:39.592Z,54.20
2017-10-04T03:09:39.619Z,54.00
2017-10-04T03:10:39.547Z,53.40
2017-10-04T03:11:39.640Z,54.60
2017-10-04T03:12:39.505Z,54.00
2017-10-04T03:13:39.556Z,54.20
2017-10-04T03:14:39.487Z,53.40
2017-10-04T03:15:39.565Z,54.10
2017-10-04T03:16:39.436Z,55.10
2017-10-04T03:17:39.490Z,54.40
2017-10-04T03:18:39.395Z,53.00
2017-10-04T03:19:39.499Z,55.60
2017-10-04T03:20:39.368Z,54.50
2017-10-04T03:21:39.399Z,53.90
2017-10-04T03:22:39.331Z,53.40
2017-10-04T03:23:39.422Z,54.80
2017-10-04T03:24:39.308Z,53.70
2017-10-04T03:25:39.321Z,54.70
2017-10-04T03:26:39.285Z,55.30
2017-10-04T03:27:39.336Z,54.00
2017-10-04T03:28:39.229Z,53.20
2017-10-04T03:29:39.252Z,55.20
2017-10-04T03:30:39.198Z,53.60
2017-10-04T03:31:39.261Z,53.60
2017-10-04T03:32:39.161Z,55.40
2017-10-04T03:33:39.289Z,53.80
2017-10-04T03:34:39.123Z,54.90
2017-10-04T03:35:39.194Z,53.90
2017-10-04T03:36:39.088Z,53.20
2017-10-04T03:37:39.092Z,54.00
2017-10-04T03:38:39.110Z,55.00
2017-10-04T03:39:39.044Z,53.30
2017-10-04T03:40:39.128Z,53.50
2017-10-04T03:41:39.002Z,53.80
2017-10-04T03:42:39.031Z,53.70
2017-10-04T03:43:38.962Z,55.20
2017-10-04T03:44:39.053Z,54.10
2017-10-04T03:45:38.942Z,54.30
2017-10-04T03:46:38.973Z,55.90
2017-10-04T03:47:38.899Z,54.80
2017-10-04T03:48:38.983Z,55.20
2017-10-04T03:49:38.888Z,54.50
2017-10-04T03:50:38.904Z,54.60
2017-10-04T03:51:40.693Z,55.10
2017-10-04T03:53:38.798Z,54.80
2017-10-04T03:54:38.818Z,54.90
2017-10-04T03:55:38.758Z,55.00
2017-10-04T03:56:38.839Z,54.80
2017-10-04T03:57:38.724Z,56.70
2017-10-04T03:58:38.752Z,55.60
2017-10-04T03:59:38.703Z,55.10
2017-10-04T04:00:38.765Z,54.50
2017-10-04T04:01:38.660Z,55.20
2017-10-04T04:02:38.674Z,55.50
2017-10-04T04:03:38.632Z,54.70
2017-10-04T04:04:38.690Z,55.60
2017-10-04T04:05:38.585Z,55.50
2017-10-04T04:06:38.600Z,54.50
2017-10-04T04:07:38.559Z,55.50
2017-10-04T04:08:38.618Z,54.70
2017-10-04T04:09:38.521Z,56.00
2017-10-04T04:10:38.625Z,54.70
2017-10-04T04:11:38.509Z,55.80
2017-10-04T04:12:38.540Z,56.00
2017-10-04T04:13:39.326Z,54.20
2017-10-04T04:14:38.553Z,56.60
2017-10-04T04:15:38.404Z,54.80
2017-10-04T04:16:38.462Z,55.10
2017-10-04T04:17:38.372Z,55.90
2017-10-04T04:18:38.479Z,57.10
2017-10-04T04:19:38.349Z,57.50
2017-10-04T04:20:38.400Z,55.60
2017-10-04T04:21:38.310Z,56.40
2017-10-04T04:22:38.405Z,57.50
2017-10-04T04:23:38.268Z,56.00
2017-10-04T04:24:38.323Z,55.60
2017-10-04T04:25:38.232Z,55.90
2017-10-04T04:26:38.347Z,56.30
2017-10-04T04:27:38.220Z,56.20
2017-10-04T04:28:38.256Z,57.60
2017-10-04T04:29:38.174Z,56.20
2017-10-04T04:30:38.274Z,56.40
2017-10-04T04:31:38.148Z,55.40
2017-10-04T04:32:38.172Z,56.60
2017-10-04T04:33:38.106Z,56.10
2017-10-04T04:34:38.198Z,57.10
2017-10-04T04:35:38.053Z,56.40
2017-10-04T04:36:38.685Z,56.50
2017-10-04T04:37:38.711Z,56.50
2017-10-04T04:38:38.572Z,57.10
2017-10-04T04:39:38.603Z,56.80
2017-10-04T04:40:37.978Z,56.90
2017-10-04T04:41:38.040Z,58.20
2017-10-04T04:42:37.942Z,57.30
2017-10-04T04:43:37.951Z,55.90
2017-10-04T04:44:37.919Z,57.50
2017-10-04T04:45:37.973Z,54.40
2017-10-04T04:46:37.858Z,56.80
2017-10-04T04:47:37.969Z,55.40
2017-10-04T04:48:37.831Z,56.40
2017-10-04T04:49:37.891Z,56.90
2017-10-04T04:50:37.803Z,56.00
2017-10-04T04:51:37.906Z,56.70
2017-10-04T04:52:37.778Z,55.30
2017-10-04T04:53:37.825Z,57.00
2017-10-04T04:54:37.722Z,56.60
2017-10-04T04:55:37.831Z,56.40
2017-10-04T04:56:37.683Z,56.20
2017-10-04T04:57:37.741Z,56.30
2017-10-04T04:58:37.658Z,56.60
2017-10-04T04:59:37.752Z,56.10
2017-10-04T05:00:37.614Z,56.80
2017-10-04T05:01:37.662Z,55.90
2017-10-04T05:02:37.582Z,55.20
2017-10-04T05:03:37.689Z,57.00
2017-10-04T05:04:37.536Z,55.90
2017-10-04T05:05:37.592Z,56.10
2017-10-04T05:06:37.504Z,56.20
2017-10-04T05:07:37.609Z,56.00
2017-10-04T05:08:37.484Z,56.60
2017-10-04T05:09:37.522Z,56.90
2017-10-04T05:10:37.430Z,55.60
2017-10-04T05:11:37.533Z,55.90
2017-10-04T05:12:37.415Z,56.50
2017-10-04T05:13:37.465Z,56.20
2017-10-04T05:14:37.357Z,56.90
2017-10-04T05:15:37.464Z,56.80
2017-10-04T05:16:37.329Z,55.90
2017-10-04T05:17:37.374Z,55.50
2017-10-04T05:18:37.308Z,55.40
2017-10-04T05:19:37.405Z,56.80
2017-10-04T05:20:37.263Z,56.30
2017-10-04T05:21:37.299Z,55.90
2017-10-04T05:22:37.234Z,56.00
2017-10-04T05:23:37.320Z,57.10
2017-10-04T05:24:37.193Z,55.80
2017-10-04T05:25:37.225Z,56.60
2017-10-04T05:26:37.145Z,56.90
2017-10-04T05:27:37.249Z,56.70
2017-10-04T05:28:37.130Z,56.80
2017-10-04T05:29:37.150Z,57.80
2017-10-04T05:30:37.076Z,57.10
2017-10-04T05:31:37.173Z,56.20
2017-10-04T05:32:37.049Z,55.90
2017-10-04T05:33:37.084Z,57.00
2017-10-04T05:34:37.011Z,56.40
2017-10-04T05:35:37.000Z,56.50
2017-10-04T05:36:36.993Z,56.50
2017-10-04T05:37:37.004Z,55.90
2017-10-04T05:38:36.946Z,56.00
2017-10-04T05:39:37.032Z,56.30
2017-10-04T05:40:36.913Z,56.30
2017-10-04T05:41:36.938Z,58.20
2017-10-04T05:42:36.872Z,55.90
2017-10-04T05:43:36.947Z,56.40
2017-10-04T05:44:36.838Z,55.80
2017-10-04T05:45:36.870Z,56.60
2017-10-04T05:46:36.797Z,55.70
2017-10-04T05:47:36.874Z,55.20
2017-10-04T05:48:36.779Z,55.20
2017-10-04T05:49:36.789Z,56.20
2017-10-04T05:50:36.743Z,55.10
2017-10-04T05:51:36.803Z,56.00
2017-10-04T05:52:36.707Z,55.70
2017-10-04T05:53:36.717Z,55.80
2017-10-04T05:54:36.670Z,55.10
2017-10-04T05:55:36.722Z,55.70
2017-10-04T05:56:36.632Z,55.20
2017-10-04T05:57:36.793Z,55.40
2017-10-04T05:58:36.607Z,56.60
2017-10-04T05:59:36.670Z,56.20
2017-10-04T06:00:36.559Z,55.40
2017-10-04T06:01:36.665Z,56.10
2017-10-04T06:02:36.527Z,56.40
2017-10-04T06:03:36.577Z,56.20
2017-10-04T06:04:36.493Z,56.40
2017-10-04T06:05:36.608Z,56.60
2017-10-04T06:06:36.449Z,55.60
2017-10-04T06:07:36.510Z,55.60
2017-10-04T06:08:36.406Z,55.90
2017-10-04T06:09:36.531Z,56.90
2017-10-04T06:10:36.376Z,55.10
2017-10-04T06:11:36.440Z,56.20
2017-10-04T06:12:36.351Z,54.90
2017-10-04T06:13:36.442Z,56.20
2017-10-04T06:14:36.317Z,55.90
2017-10-04T06:15:36.359Z,55.70
2017-10-04T06:16:36.271Z,56.20
2017-10-04T06:17:36.370Z,55.60
2017-10-04T06:18:36.233Z,55.30
2017-10-04T06:19:36.291Z,55.50
2017-10-04T06:20:36.199Z,54.90
2017-10-04T06:21:36.308Z,55.30
2017-10-04T06:22:36.156Z,55.50
2017-10-04T06:23:36.209Z,55.30
2017-10-04T06:24:36.118Z,56.50
2017-10-04T06:25:36.242Z,55.50
2017-10-04T06:26:36.076Z,56.50
2017-10-04T06:27:36.145Z,55.10
2017-10-04T06:28:36.049Z,55.30
2017-10-04T06:29:36.152Z,55.60
2017-10-04T06:30:36.001Z,56.40
2017-10-04T06:31:36.088Z,55.00
2017-10-04T06:32:35.966Z,55.90
2017-10-04T06:33:36.848Z,55.50
2017-10-04T06:34:36.853Z,55.10
2017-10-04T06:35:35.988Z,54.50
2017-10-04T06:36:35.907Z,55.10
2017-10-04T06:37:36.007Z,54.80
2017-10-04T06:38:35.866Z,54.40
2017-10-04T06:39:35.913Z,55.20
2017-10-04T06:40:35.822Z,54.10
2017-10-04T06:41:35.806Z,54.90
2017-10-04T06:42:35.837Z,54.50
2017-10-04T06:43:35.779Z,54.30
2017-10-04T06:44:35.844Z,54.50
2017-10-04T06:45:35.749Z,54.30
2017-10-04T06:46:35.763Z,53.30
2017-10-04T06:47:35.704Z,54.30
2017-10-04T06:48:35.782Z,53.40
2017-10-04T06:49:35.664Z,53.90
2017-10-04T06:50:35.699Z,53.80
2017-10-04T06:51:35.651Z,55.40
2017-10-04T06:52:35.708Z,55.50
2017-10-04T06:53:35.598Z,55.50
2017-10-04T06:54:35.629Z,54.60
2017-10-04T06:55:35.570Z,55.00
2017-10-04T06:56:35.634Z,55.00
2017-10-04T06:57:35.531Z,55.20
2017-10-04T06:58:35.541Z,56.40
2017-10-04T06:59:35.484Z,55.30
2017-10-04T07:00:35.557Z,55.20
2017-10-04T07:01:35.438Z,54.70
2017-10-04T07:02:35.463Z,54.90
2017-10-04T07:03:35.425Z,54.00
2017-10-04T07:04:35.488Z,54.80
2017-10-04T07:05:35.374Z,53.60
2017-10-04T07:06:35.400Z,54.70
2017-10-04T07:07:35.328Z,54.60
2017-10-04T07:08:35.415Z,53.90
2017-10-04T07:09:35.302Z,53.70
2017-10-04T07:10:35.446Z,54.10
2017-10-04T07:11:35.260Z,54.90
2017-10-04T07:12:35.344Z,53.90
2017-10-04T07:13:35.220Z,55.80
2017-10-04T07:14:35.251Z,54.50
2017-10-04T07:15:35.210Z,54.60
2017-10-04T07:16:35.269Z,53.50
2017-10-04T07:17:35.169Z,54.80
2017-10-04T07:18:35.176Z,53.40
2017-10-04T07:19:35.128Z,54.00
2017-10-04T07:20:35.183Z,54.00
2017-10-04T07:21:35.087Z,53.40
2017-10-04T07:22:35.112Z,53.40
2017-10-04T07:23:35.050Z,54.30
2017-10-04T07:24:35.114Z,53.60
2017-10-04T07:25:35.008Z,52.80
2017-10-04T07:26:35.025Z,53.00
2017-10-04T07:27:35.002Z,53.50
2017-10-04T07:28:35.053Z,54.80
2017-10-04T07:29:34.944Z,53.80
2017-10-04T07:30:35.067Z,53.30
2017-10-04T07:31:34.924Z,53.30
2017-10-04T07:32:34.970Z,54.70
2017-10-04T07:33:34.865Z,53.40
2017-10-04T07:34:34.994Z,53.50
2017-10-04T07:35:34.837Z,55.10
2017-10-04T07:36:34.897Z,53.10
2017-10-04T07:37:34.797Z,53.40
2017-10-04T07:38:34.925Z,54.20
2017-10-04T07:39:34.778Z,52.60
2017-10-04T07:40:34.835Z,54.00
2017-10-04T07:41:34.731Z,53.90
2017-10-04T07:42:34.729Z,55.40
2017-10-04T07:43:34.756Z,53.60
2017-10-04T07:44:34.689Z,53.80
2017-10-04T07:45:34.758Z,53.90
2017-10-04T07:46:34.659Z,53.60
2017-10-04T07:47:34.668Z,53.10
2017-10-04T07:48:34.613Z,54.30
2017-10-04T07:49:34.687Z,54.20
2017-10-04T07:50:34.582Z,53.30
2017-10-04T07:51:34.592Z,53.40
2017-10-04T07:52:34.535Z,53.80
2017-10-04T07:53:34.611Z,53.60
2017-10-04T07:54:34.497Z,53.40
2017-10-04T07:55:34.523Z,53.70
2017-10-04T07:56:34.488Z,53.60
2017-10-04T07:57:34.469Z,53.30
2017-10-04T07:58:34.429Z,52.90
2017-10-04T07:59:34.459Z,52.70
2017-10-04T08:00:34.394Z,53.90
2017-10-04T08:01:34.464Z,54.70
2017-10-04T08:02:34.359Z,53.40
2017-10-04T08:03:34.394Z,53.90
2017-10-04T08:04:34.329Z,53.40
2017-10-04T08:05:34.401Z,53.40
2017-10-04T08:06:34.303Z,53.20
2017-10-04T08:07:34.409Z,53.00
2017-10-04T08:08:34.286Z,54.80
2017-10-04T08:09:34.331Z,53.40
2017-10-04T08:10:34.264Z,53.80
2017-10-04T08:11:34.347Z,54.10
2017-10-04T08:12:34.199Z,53.10
2017-10-04T08:13:34.247Z,53.40
2017-10-04T08:14:34.163Z,52.40
2017-10-04T08:15:34.880Z,52.80
2017-10-04T08:16:34.124Z,54.20
2017-10-04T08:17:34.115Z,53.50
2017-10-04T08:18:34.083Z,53.30
2017-10-04T08:19:34.913Z,53.40
2017-10-04T08:20:34.053Z,52.40
2017-10-04T08:21:34.124Z,53.50
2017-10-04T08:22:34.015Z,52.10
2017-10-04T08:23:34.110Z,52.40
2017-10-04T08:24:33.999Z,53.10
2017-10-04T08:25:34.034Z,54.30
2017-10-04T08:26:33.961Z,52.10
2017-10-04T08:27:34.880Z,53.60
2017-10-04T08:28:33.909Z,53.70
2017-10-04T08:29:33.950Z,52.70
2017-10-04T08:30:33.891Z,52.40
2017-10-04T08:31:33.959Z,52.30
2017-10-04T08:32:33.844Z,53.60
2017-10-04T08:33:33.876Z,52.70
2017-10-04T08:34:33.820Z,52.90
2017-10-04T08:36:33.779Z,53.40
2017-10-04T08:37:33.798Z,52.50
2017-10-04T08:38:33.740Z,53.30
2017-10-04T08:39:33.820Z,53.70
2017-10-04T08:40:33.707Z,53.00
2017-10-04T08:41:34.388Z,53.00
2017-10-04T08:42:33.694Z,53.00
2017-10-04T08:43:33.701Z,53.00
2017-10-04T08:44:33.768Z,53.30
2017-10-04T08:45:33.629Z,53.50
2017-10-04T08:46:33.676Z,53.00
2017-10-04T08:47:33.588Z,52.70
2017-10-04T08:48:33.684Z,53.40
2017-10-04T08:49:33.550Z,54.00
2017-10-04T08:50:33.601Z,52.60
2017-10-04T08:51:33.522Z,52.40
2017-10-04T08:52:33.606Z,53.50
2017-10-04T08:53:33.482Z,53.80
2017-10-04T08:54:33.512Z,52.90
2017-10-04T08:55:33.455Z,52.70
2017-10-04T08:56:33.535Z,53.70
2017-10-04T08:57:33.432Z,52.20
2017-10-04T08:58:33.437Z,54.30
2017-10-04T08:59:33.394Z,52.90
2017-10-04T09:00:33.454Z,53.30
2017-10-04T09:01:33.362Z,53.20
2017-10-04T09:02:33.464Z,53.20
2017-10-04T09:03:33.330Z,54.10
2017-10-04T09:04:33.392Z,53.10
2017-10-04T09:05:33.310Z,52.80
2017-10-04T09:06:33.401Z,53.50
2017-10-04T09:07:33.273Z,52.20
2017-10-04T09:08:33.308Z,53.50
2017-10-04T09:09:33.233Z,53.10
2017-10-04T09:10:33.345Z,52.70
2017-10-04T09:11:33.197Z,53.80
2017-10-04T09:12:33.230Z,53.30
2017-10-04T09:13:33.168Z,53.00
2017-10-04T09:14:33.253Z,53.50
2017-10-04T09:15:33.131Z,52.90
2017-10-04T09:16:33.172Z,52.70
2017-10-04T09:17:33.118Z,52.90
2017-10-04T09:18:33.174Z,53.40
2017-10-04T09:19:33.068Z,53.30
2017-10-04T09:20:33.191Z,53.60
2017-10-04T09:21:33.048Z,52.90
2017-10-04T09:22:33.107Z,52.80
2017-10-04T09:23:33.009Z,53.40
2017-10-04T09:24:33.900Z,55.40
2017-10-04T09:25:32.981Z,54.00
2017-10-04T09:26:33.034Z,54.10
2017-10-04T09:27:32.968Z,53.30
2017-10-04T09:28:33.043Z,53.20
2017-10-04T09:29:32.925Z,52.80
2017-10-04T09:30:32.957Z,53.10
2017-10-04T09:31:32.925Z,53.10
2017-10-04T09:32:32.968Z,53.70
2017-10-04T09:33:32.896Z,53.50
2017-10-04T09:34:32.884Z,53.00
2017-10-04T09:35:32.849Z,56.20
2017-10-04T09:36:32.902Z,59.90
2017-10-04T09:37:32.799Z,60.50
2017-10-04T09:38:32.914Z,58.00
2017-10-04T09:39:32.775Z,56.10
2017-10-04T09:40:32.841Z,54.80
2017-10-04T09:41:32.749Z,54.50
2017-10-04T09:42:32.842Z,56.00
2017-10-04T09:43:32.707Z,55.90
2017-10-04T09:44:32.714Z,56.10
2017-10-04T09:45:32.780Z,54.20
2017-10-04T09:46:32.658Z,55.90
2017-10-04T09:47:32.786Z,54.00
2017-10-04T09:48:32.634Z,53.80
2017-10-04T09:49:32.692Z,56.30
2017-10-04T09:50:32.599Z,56.70
2017-10-04T09:51:32.722Z,62.20
2017-10-04T09:52:32.578Z,59.20
2017-10-04T09:53:32.612Z,57.20
2017-10-04T09:54:32.569Z,56.20
2017-10-04T09:55:32.627Z,57.20
2017-10-04T09:56:32.517Z,56.80
2017-10-04T09:57:32.540Z,54.90
2017-10-04T09:58:32.479Z,56.70
2017-10-04T09:59:32.555Z,57.50
2017-10-04T10:00:32.474Z,57.70
2017-10-04T10:01:32.563Z,57.80
2017-10-04T10:02:32.430Z,54.00
2017-10-04T10:03:32.486Z,56.20
2017-10-04T10:04:32.389Z,55.70
2017-10-04T10:05:32.495Z,56.10
2017-10-04T10:06:32.358Z,53.20
2017-10-04T10:07:32.411Z,55.80
2017-10-04T10:08:32.345Z,56.00
2017-10-04T10:09:32.448Z,56.60
2017-10-04T10:10:32.291Z,61.50
2017-10-04T10:11:32.333Z,56.60
2017-10-04T10:12:32.261Z,54.40
2017-10-04T10:13:32.353Z,53.80
2017-10-04T10:14:32.258Z,56.20
2017-10-04T10:15:32.354Z,59.30
2017-10-04T10:16:32.192Z,58.50
2017-10-04T10:17:33.113Z,55.00
2017-10-04T10:18:32.160Z,56.80
2017-10-04T10:19:32.914Z,56.50
2017-10-04T10:20:32.130Z,55.50
2017-10-04T10:21:32.203Z,54.90
2017-10-04T10:22:32.094Z,57.40
2017-10-04T10:23:32.220Z,60.30
2017-10-04T10:24:32.072Z,59.20
2017-10-04T10:25:32.140Z,58.20
2017-10-04T10:26:32.050Z,58.40
2017-10-04T10:27:32.140Z,58.80
2017-10-04T10:28:32.004Z,57.90
2017-10-04T10:29:32.058Z,54.80
2017-10-04T10:30:31.974Z,57.30
2017-10-04T10:31:32.067Z,56.50
2017-10-04T10:32:31.946Z,58.40
2017-10-04T10:33:31.986Z,58.70
2017-10-04T10:34:31.922Z,59.90
2017-10-04T10:35:32.024Z,62.30
2017-10-04T10:36:31.876Z,57.30
2017-10-04T10:37:31.906Z,57.50
2017-10-04T10:38:31.867Z,57.80
2017-10-04T10:39:31.924Z,57.90
2017-10-04T10:40:31.831Z,57.20
2017-10-04T10:41:31.936Z,54.90
2017-10-04T10:42:31.802Z,55.00
2017-10-04T10:43:31.949Z,57.40
2017-10-04T10:44:31.778Z,59.00
2017-10-04T10:45:31.765Z,58.00
2017-10-04T10:46:31.995Z,57.50
2017-10-04T10:47:31.739Z,56.40
2017-10-04T10:48:31.780Z,55.20
2017-10-04T10:49:31.722Z,57.20
2017-10-04T10:50:31.808Z,62.00
2017-10-04T10:51:31.683Z,58.20
2017-10-04T10:52:31.710Z,57.40
2017-10-04T10:53:31.663Z,56.20
2017-10-04T10:54:31.731Z,56.90
2017-10-04T10:55:31.633Z,60.20
2017-10-04T10:56:31.736Z,58.00
2017-10-04T10:57:31.586Z,56.30
2017-10-04T10:58:31.649Z,57.50
2017-10-04T10:59:31.566Z,56.70
2017-10-04T11:00:31.669Z,58.90
2017-10-04T11:01:31.519Z,58.40
2017-10-04T11:02:31.574Z,56.10
2017-10-04T11:03:31.498Z,55.10
2017-10-04T11:04:31.590Z,56.40
2017-10-04T11:05:31.470Z,54.40
2017-10-04T11:06:31.498Z,54.80
2017-10-04T11:07:31.444Z,56.30
2017-10-04T11:08:31.517Z,55.10
2017-10-04T11:09:31.436Z,55.00
2017-10-04T11:10:31.531Z,56.60
2017-10-04T11:11:31.397Z,57.60
2017-10-04T11:12:31.441Z,59.70
2017-10-04T11:13:31.363Z,57.50
2017-10-04T11:14:31.479Z,56.80
2017-10-04T11:15:31.335Z,56.70
2017-10-04T11:16:31.375Z,57.40
2017-10-04T11:17:31.301Z,56.60
2017-10-04T11:18:31.380Z,56.20
2017-10-04T11:19:31.301Z,54.60
2017-10-04T11:20:31.408Z,56.90
2017-10-04T11:21:31.254Z,57.40
2017-10-04T11:22:31.325Z,58.40
2017-10-04T11:23:31.233Z,58.00
2017-10-04T11:24:31.332Z,57.50
2017-10-04T11:25:31.202Z,54.80
2017-10-04T11:26:31.242Z,56.80
2017-10-04T11:27:31.173Z,57.00
2017-10-04T11:28:31.263Z,54.90
2017-10-04T11:29:31.124Z,55.70
2017-10-04T11:30:31.170Z,57.40
2017-10-04T11:31:31.090Z,56.80
2017-10-04T11:32:31.098Z,59.70
2017-10-04T11:33:31.188Z,58.30
2017-10-04T11:34:31.057Z,55.30
2017-10-04T11:35:31.056Z,54.80
2017-10-04T11:36:31.131Z,55.00
2017-10-04T11:37:31.094Z,54.50
2017-10-04T11:38:31.123Z,55.30
2017-10-04T11:39:30.979Z,55.40
2017-10-04T11:40:31.036Z,57.10
2017-10-04T11:41:30.951Z,58.10
2017-10-04T11:42:31.047Z,57.50
2017-10-04T11:43:30.923Z,56.10
2017-10-04T11:44:30.959Z,56.80
2017-10-04T11:45:30.912Z,57.30
2017-10-04T11:46:30.903Z,54.50
2017-10-04T11:47:30.987Z,54.30
2017-10-04T11:48:30.858Z,55.00
2017-10-04T11:49:30.918Z,53.60
2017-10-04T11:50:30.812Z,53.90
2017-10-04T11:51:30.907Z,54.20
2017-10-04T11:52:30.780Z,53.90
2017-10-04T11:53:30.818Z,53.70
2017-10-04T11:54:30.748Z,54.10
2017-10-04T11:55:31.446Z,52.50
2017-10-04T11:56:30.721Z,52.90
2017-10-04T11:57:30.747Z,52.90
2017-10-04T11:58:30.704Z,53.20
2017-10-04T11:59:30.761Z,53.00
2017-10-04T12:00:30.656Z,52.80
2017-10-04T12:01:30.675Z,53.70
2017-10-04T12:02:30.624Z,53.50
2017-10-04T12:03:30.714Z,52.50
2017-10-04T12:04:30.588Z,53.30
2017-10-04T12:05:30.716Z,53.00
2017-10-04T12:06:30.559Z,52.90
2017-10-04T12:07:30.608Z,52.60
2017-10-04T12:08:30.537Z,52.60
2017-10-04T12:09:30.648Z,52.80
2017-10-04T12:10:30.513Z,53.20
2017-10-04T12:11:30.547Z,54.10
2017-10-04T12:12:30.466Z,53.30
2017-10-04T12:13:30.552Z,53.70
2017-10-04T12:14:30.437Z,53.20
2017-10-04T12:15:30.467Z,52.90
2017-10-04T12:16:30.413Z,52.60
2017-10-04T12:17:30.485Z,52.00
2017-10-04T12:18:30.378Z,53.20
2017-10-04T12:19:30.495Z,52.60
2017-10-04T12:20:30.348Z,52.70
2017-10-04T12:21:30.420Z,53.10
2017-10-04T12:22:30.315Z,52.00
2017-10-04T12:23:30.433Z,52.60
2017-10-04T12:24:30.300Z,53.10
2017-10-04T12:25:30.350Z,52.70
2017-10-04T12:26:30.266Z,53.80
2017-10-04T12:27:30.358Z,52.60
2017-10-04T12:28:30.231Z,52.50
2017-10-04T12:29:30.258Z,53.20
2017-10-04T12:30:30.177Z,52.60
2017-10-04T12:31:30.275Z,52.60
2017-10-04T12:32:30.147Z,52.10
2017-10-04T12:33:30.189Z,51.90
2017-10-04T12:34:30.118Z,52.20
2017-10-04T12:35:30.203Z,52.70
2017-10-04T12:36:30.087Z,52.90
2017-10-04T12:37:30.145Z,52.60
2017-10-04T12:38:30.061Z,52.40
2017-10-04T12:39:30.149Z,52.60
2017-10-04T12:40:30.015Z,52.50
2017-10-04T12:41:30.049Z,52.60
2017-10-04T12:42:29.998Z,52.70
2017-10-04T12:43:30.067Z,52.10
2017-10-04T12:44:29.956Z,52.80
2017-10-04T12:45:29.947Z,51.60
2017-10-04T12:46:29.927Z,51.80
2017-10-04T12:47:29.913Z,51.40
2017-10-04T12:48:29.919Z,52.30
2017-10-04T12:49:29.888Z,51.90
2017-10-04T12:50:29.914Z,52.20
2017-10-04T12:51:29.854Z,52.70
2017-10-04T12:52:29.923Z,52.60
2017-10-04T12:53:29.829Z,51.40
2017-10-04T12:54:29.835Z,52.50